Portada
METAR-TAF:

METAR-TAF

Aeroports :

Aeroport de Copenhaguen

Copenhaguen, Dinamarca

latitud: 55-37N, longitud: 012-39E, altitud: 5 m

Observació

L'informe es va fer fa 26 minuts, a les 16:20 UTC
Vent 10 kt del Oest/Sud-Oest
Temperatura 12°C
Humitat 94%
Pressió 1020 hPa
Visibilitat: 9000 m
Escasses núvols a una alçada de 1100 ft
Cel ennuvolat a una alçada de 6000 ft

METAR: EKCH 221620Z 24010KT 9000 FEW011 BKN060 12/11 Q1020 NOSIG

Hora: 18:46 (16:46 UTC)

Pronòstic

L'informe es va fer fa 5 hores i 46 minuts, a les 11:00 UTC
Pronòstic vàlid del 22 a les 12 UTC al 23 a les 12 UTC
Vent 15 kt del Sud-Oest
Visibilitat: 8000 m
Cel ennuvolat a una alçada de 2000 ft
Temporalment
l' 22 a les 12 UTC al 22 a les 18 UTC
Cel ennuvolat a una alçada de 1000 ft
Evolucionant progressivament
l' 22 a les 18 UTC al 22 a les 21 UTC
Vent 5 kt del Oest/Sud-Oest

TAF: EKCH 221100Z 2212/2312 23015KT 8000 BKN020 TEMPO 2212/2218 BKN010 BECMG 2218/2221 25005KT

Observacions i pronòstics meteorològics de més de 4000 aeroports (METAR i TAF).

Les estacions disponibles són els punts grocs i vermells al mapa.

Posi el ratolí al punt desitjat per veure el nom de l'estació.

Feu clic per veure les observacions i els pronòstics meteorològics.

Per canviar el mapa: feu clic els botons verds amb una creu de color negre per apropar; al botó verd amb un guió per allunyar la imatge; o en les fletxes verdes per a mapes adjacents.


METAR-TAF: